NCAR-RAP Real-Time Weather Data

Output produced by METARs form (17 January 2018  22:26 UTC)
found at http://weather.rap.ucar.edu/surface/
 
Conditions at: KFPR observed 17 January 2018  21:53 UTC
Temperature: 20.6°C (69°F)
Dewpoint: 7.2°C (45°F) [RH = 42%]
Pressure (altimeter): 30.16 inches Hg (1021.4 mb)
[Sea-level pressure: 1021.2 mb]
Winds: from the NW (310 degrees) at 9 MPH (8 knots; 4.2 m/s)
Visibility: 10 or more miles (16+ km)
Ceiling: at least 12,000 feet AGL
Clouds: sky clear below 12,000 feet AGL
Present Weather: no significant weather observed at this time
KFPR 172153Z 31008KT 10SM CLR 21/07 A3016 RMK AO2 SLP212 T02060072

Conditions at: KFPR observed 17 January 2018  20:53 UTC
Temperature: 22.2°C (72°F)
Dewpoint: 4.4°C (40°F) [RH = 31%]
Pressure (altimeter): 30.15 inches Hg (1021.1 mb)
[Sea-level pressure: 1020.9 mb]
Winds: from the NW (310 degrees) at 13 MPH (11 knots; 5.7 m/s)
gusting to 18 MPH (16 knots; 8.3 m/s)
Visibility: 10 or more miles (16+ km)
Ceiling: at least 12,000 feet AGL
Clouds: sky clear below 12,000 feet AGL
Present Weather: no significant weather observed at this time
KFPR 172053Z 31011G16KT 10SM CLR 22/04 A3015 RMK AO2 SLP209 T02220044 55016

Conditions at: KFPR observed 17 January 2018  19:53 UTC
Temperature: 22.2°C (72°F)
Dewpoint: 8.9°C (48°F) [RH = 43%]
Pressure (altimeter): 30.15 inches Hg (1021.1 mb)
[Sea-level pressure: 1020.8 mb]
Winds: from the NW (310 degrees) at 9 MPH (8 knots; 4.2 m/s)
Visibility: 10 or more miles (16+ km)
Ceiling: at least 12,000 feet AGL
Clouds: sky clear below 12,000 feet AGL
Present Weather: no significant weather observed at this time
KFPR 171953Z 31008KT 10SM CLR 22/09 A3015 RMK AO2 SLP208 T02220089

Conditions at: KFPR observed 17 January 2018  18:53 UTC
Temperature: 21.7°C (71°F)
Dewpoint: 8.9°C (48°F) [RH = 44%]
Pressure (altimeter): 30.17 inches Hg (1021.8 mb)
[Sea-level pressure: 1021.6 mb]
Winds: from the WNW (300 degrees) at 12 MPH (10 knots; 5.2 m/s)
Visibility: 10 or more miles (16+ km)
Ceiling: at least 12,000 feet AGL
Clouds: sky clear below 12,000 feet AGL
Present Weather: no significant weather observed at this time
KFPR 171853Z 30010KT 10SM CLR 22/09 A3017 RMK AO2 SLP216 T02170089

Conditions at: KFPR observed 17 January 2018  17:53 UTC
Temperature: 21.1°C (70°F)
Dewpoint: 9.4°C (49°F) [RH = 47%]
Pressure (altimeter): 30.20 inches Hg (1022.8 mb)
[Sea-level pressure: 1022.4 mb]
Winds: from the WNW (290 degrees) at 7 MPH (6 knots; 3.1 m/s)
Visibility: 10 or more miles (16+ km)
Ceiling: at least 12,000 feet AGL
Clouds: sky clear below 12,000 feet AGL
Present Weather: no significant weather observed at this time
KFPR 171753Z 29006KT 10SM CLR 21/09 A3020 RMK AO2 SLP224 T02110094 10217 20100 58019

Conditions at: KFPR observed 17 January 2018  16:53 UTC
Temperature: 20.6°C (69°F)
Dewpoint: 11.7°C (53°F) [RH = 57%]
Pressure (altimeter): 30.22 inches Hg (1023.5 mb)
[Sea-level pressure: 1023.3 mb]
Winds: variable direction winds at 3 MPH (3 knots; 1.6 m/s)
Visibility: 10 or more miles (16+ km)
Ceiling: at least 12,000 feet AGL
Clouds: sky clear below 12,000 feet AGL
Present Weather: no significant weather observed at this time
KFPR 171653Z VRB03KT 10SM CLR 21/12 A3022 RMK AO2 SLP233 T02060117

Conditions at: KFPR observed 17 January 2018  15:53 UTC
Temperature: 19.4°C (67°F)
Dewpoint: 12.8°C (55°F) [RH = 66%]
Pressure (altimeter): 30.24 inches Hg (1024.1 mb)
[Sea-level pressure: 1024.1 mb]
Winds: from the WNW (290 degrees) at 7 MPH (6 knots; 3.1 m/s)
Visibility: 10 or more miles (16+ km)
Ceiling: at least 12,000 feet AGL
Clouds: sky clear below 12,000 feet AGL
Present Weather: no significant weather observed at this time
KFPR 171553Z 29006KT 10SM CLR 19/13 A3024 RMK AO2 SLP241 T01940128

Conditions at: KFPR observed 17 January 2018  14:53 UTC
Temperature: 17.8°C (64°F)
Dewpoint: 13.3°C (56°F) [RH = 75%]
Pressure (altimeter): 30.25 inches Hg (1024.5 mb)
[Sea-level pressure: 1024.3 mb]
Winds: from the N (350 degrees) at 6 MPH (5 knots; 2.6 m/s)
Visibility: 10 or more miles (16+ km)
Ceiling: at least 12,000 feet AGL
Clouds: sky clear below 12,000 feet AGL
Present Weather: no significant weather observed at this time
KFPR 171453Z 35005KT 10SM CLR 18/13 A3025 RMK AO2 SLP243 T01780133 51010

Conditions at: KFPR observed 17 January 2018  13:53 UTC
Temperature: 14.4°C (58°F)
Dewpoint: 13.9°C (57°F) [RH = 97%]
Pressure (altimeter): 30.25 inches Hg (1024.5 mb)
[Sea-level pressure: 1024.1 mb]
Winds: variable direction winds at 3 MPH (3 knots; 1.6 m/s)
Visibility: 10 or more miles (16+ km)
Ceiling: at least 12,000 feet AGL
Clouds: few clouds at 4400 feet AGL
Present Weather: no significant weather observed at this time
KFPR 171353Z VRB03KT 10SM FEW044 14/14 A3025 RMK AO2 SLP241 T01440139

Conditions at: KFPR observed 17 January 2018  12:53 UTC
Temperature: 11.7°C (53°F)
Dewpoint: 11.7°C (53°F) [RH = 100%]
Pressure (altimeter): 30.23 inches Hg (1023.8 mb)
[Sea-level pressure: 1023.6 mb]
Winds: from the NW (320 degrees) at 3 MPH (3 knots; 1.6 m/s)
Visibility: 9 miles (14 km)
Ceiling: at least 12,000 feet AGL
Clouds: scattered clouds at 4700 feet AGL
Present Weather: no significant weather observed at this time
KFPR 171253Z 32003KT 9SM SCT047 12/12 A3023 RMK AO2 SLP236 T01170117

Conditions at: KFPR observed 17 January 2018  11:53 UTC
Temperature: 10.6°C (51°F)
Dewpoint: 10.6°C (51°F) [RH = 100%]
Pressure (altimeter): 30.22 inches Hg (1023.5 mb)
[Sea-level pressure: 1023.3 mb]
Winds: calm
Visibility: 9 miles (14 km)
Ceiling: at least 12,000 feet AGL
Clouds: few clouds at 4900 feet AGL
Present Weather: no significant weather observed at this time
KFPR 171153Z 00000KT 9SM FEW049 11/11 A3022 RMK AO2 SLP233 T01060106 10133 20100 53007

Conditions at: KFPR observed 17 January 2018  10:53 UTC
Temperature: 10.6°C (51°F)
Dewpoint: 10.6°C (51°F) [RH = 100%]
Pressure (altimeter): 30.21 inches Hg (1023.1 mb)
[Sea-level pressure: 1022.8 mb]
Winds: from the WNW (290 degrees) at 3 MPH (3 knots; 1.6 m/s)
Visibility: 10 or more miles (16+ km)
Ceiling: at least 12,000 feet AGL
Clouds: few clouds at 5000 feet AGL
Present Weather: automated observation with no human augmentation;
there may or may not be significant weather present at this time
KFPR 171053Z AUTO 29003KT 10SM FEW050 11/11 A3021 RMK AO2 SLP228 T01060106

Conditions at: KFPR observed 17 January 2018  09:53 UTC
Temperature: 11.1°C (52°F)
Dewpoint: 11.1°C (52°F) [RH = 100%]
Pressure (altimeter): 30.20 inches Hg (1022.8 mb)
[Sea-level pressure: 1022.5 mb]
Winds: from the WNW (300 degrees) at 5 MPH (4 knots; 2.1 m/s)
Visibility: 10 or more miles (16+ km)
Ceiling: at least 12,000 feet AGL
Clouds: sky clear below 12,000 feet AGL
Present Weather: automated observation with no human augmentation;
there may or may not be significant weather present at this time
KFPR 170953Z AUTO 30004KT 10SM CLR 11/11 A3020 RMK AO2 SLP225 T01110111

Conditions at: KFPR observed 17 January 2018  08:53 UTC
Temperature: 11.1°C (52°F)
Dewpoint: 11.1°C (52°F) [RH = 100%]
Pressure (altimeter): 30.20 inches Hg (1022.8 mb)
[Sea-level pressure: 1022.5 mb]
Winds: from the WNW (300 degrees) at 5 MPH (4 knots; 2.1 m/s)
Visibility: 10 or more miles (16+ km)
Ceiling: at least 12,000 feet AGL
Clouds: sky clear below 12,000 feet AGL
Present Weather: automated observation with no human augmentation;
there may or may not be significant weather present at this time
KFPR 170853Z AUTO 30004KT 10SM CLR 11/11 A3020 RMK AO2 SLP225 T01110111 56011

Conditions at: KFPR observed 17 January 2018  07:53 UTC
Temperature: 12.8°C (55°F)
Dewpoint: 12.8°C (55°F) [RH = 100%]
Pressure (altimeter): 30.20 inches Hg (1022.8 mb)
[Sea-level pressure: 1022.6 mb]
Winds: from the NW (310 degrees) at 3 MPH (3 knots; 1.6 m/s)
Visibility: 10 or more miles (16+ km)
Ceiling: at least 12,000 feet AGL
Clouds: sky clear below 12,000 feet AGL
Present Weather: automated observation with no human augmentation;
there may or may not be significant weather present at this time
KFPR 170753Z AUTO 31003KT 10SM CLR 13/13 A3020 RMK AO2 SLP226 T01280128

Conditions at: KFPR observed 17 January 2018  06:53 UTC
Temperature: 13.3°C (56°F)
Dewpoint: 13.3°C (56°F) [RH = 100%]
Pressure (altimeter): 30.22 inches Hg (1023.5 mb)
[Sea-level pressure: 1023.2 mb]
Winds: from the NW (320 degrees) at 3 MPH (3 knots; 1.6 m/s)
Visibility: 10 or more miles (16+ km)
Ceiling: at least 12,000 feet AGL
Clouds: sky clear below 12,000 feet AGL
Present Weather: automated observation with no human augmentation;
there may or may not be significant weather present at this time
KFPR 170653Z AUTO 32003KT 10SM CLR 13/13 A3022 RMK AO2 SLP232 T01330133

Conditions at: KFPR observed 17 January 2018  05:53 UTC
Temperature: 12.8°C (55°F)
Dewpoint: 12.8°C (55°F) [RH = 100%]
Pressure (altimeter): 30.23 inches Hg (1023.8 mb)
[Sea-level pressure: 1023.6 mb]
Winds: from the NNW (330 degrees) at 3 MPH (3 knots; 1.6 m/s)
Visibility: 10 or more miles (16+ km)
Ceiling: at least 12,000 feet AGL
Clouds: sky clear below 12,000 feet AGL
Present Weather: automated observation with no human augmentation;
there may or may not be significant weather present at this time
KFPR 170553Z AUTO 33003KT 10SM CLR 13/13 A3023 RMK AO2 SLP236 T01280128 10161 20122 58015

Conditions at: KFPR observed 17 January 2018  04:53 UTC
Temperature: 13.3°C (56°F)
Dewpoint: 13.3°C (56°F) [RH = 100%]
Pressure (altimeter): 30.25 inches Hg (1024.5 mb)
[Sea-level pressure: 1024.4 mb]
Winds: from the WNW (300 degrees) at 5 MPH (4 knots; 2.1 m/s)
Visibility: 10 or more miles (16+ km)
Ceiling: at least 12,000 feet AGL
Clouds: sky clear below 12,000 feet AGL
Present Weather: automated observation with no human augmentation;
there may or may not be significant weather present at this time
KFPR 170453Z AUTO 30004KT 10SM CLR 13/13 A3025 RMK AO2 SLP244 T01330133 402220089

Conditions at: KFPR observed 17 January 2018  03:53 UTC
Temperature: 14.4°C (58°F)
Dewpoint: 14.4°C (58°F) [RH = 100%]
Pressure (altimeter): 30.27 inches Hg (1025.1 mb)
[Sea-level pressure: 1024.8 mb]
Winds: from the NNW (330 degrees) at 6 MPH (5 knots; 2.6 m/s)
Visibility: 10 or more miles (16+ km)
Ceiling: at least 12,000 feet AGL
Clouds: sky clear below 12,000 feet AGL
Present Weather: automated observation with no human augmentation;
there may or may not be significant weather present at this time
KFPR 170353Z AUTO 33005KT 10SM CLR 14/14 A3027 RMK AO2 SLP248 T01440144

Conditions at: KFPR observed 17 January 2018  02:53 UTC
Temperature: 15.0°C (59°F)
Dewpoint: 13.9°C (57°F) [RH = 93%]
Pressure (altimeter): 30.28 inches Hg (1025.5 mb)
[Sea-level pressure: 1025.1 mb]
Winds: from the NNW (340 degrees) at 5 MPH (4 knots; 2.1 m/s)
Visibility: 10 or more miles (16+ km)
Ceiling: at least 12,000 feet AGL
Clouds: sky clear below 12,000 feet AGL
Present Weather: automated observation with no human augmentation;
there may or may not be significant weather present at this time
KFPR 170253Z AUTO 34004KT 10SM CLR 15/14 A3028 RMK AO2 SLP251 T01500139 50005

Conditions at: KFPR observed 17 January 2018  01:53 UTC
Temperature: 15.0°C (59°F)
Dewpoint: 13.3°C (56°F) [RH = 90%]
Pressure (altimeter): 30.28 inches Hg (1025.5 mb)
[Sea-level pressure: 1025.2 mb]
Winds: from the NNW (340 degrees) at 6 MPH (5 knots; 2.6 m/s)
Visibility: 10 or more miles (16+ km)
Ceiling: at least 12,000 feet AGL
Clouds: sky clear below 12,000 feet AGL
Present Weather: no significant weather observed at this time
KFPR 170153Z 34005KT 10SM CLR 15/13 A3028 RMK AO2 SLP252 T01500133

Conditions at: KFPR observed 17 January 2018  00:53 UTC
Temperature: 15.6°C (60°F)
Dewpoint: 12.8°C (55°F) [RH = 83%]
Pressure (altimeter): 30.27 inches Hg (1025.1 mb)
[Sea-level pressure: 1025.0 mb]
Winds: from the N (350 degrees) at 6 MPH (5 knots; 2.6 m/s)
Visibility: 10 or more miles (16+ km)
Ceiling: at least 12,000 feet AGL
Clouds: sky clear below 12,000 feet AGL
Present Weather: no significant weather observed at this time
KFPR 170053Z 35005KT 10SM CLR 16/13 A3027 RMK AO2 SLP250 T01560128

Conditions at: KFPR observed 16 January 2018  23:53 UTC
Temperature: 16.1°C (61°F)
Dewpoint: 12.2°C (54°F) [RH = 78%]
Pressure (altimeter): 30.26 inches Hg (1024.8 mb)
[Sea-level pressure: 1024.6 mb]
Winds: from the N (350 degrees) at 7 MPH (6 knots; 3.1 m/s)
Visibility: 10 or more miles (16+ km)
Ceiling: at least 12,000 feet AGL
Clouds: sky clear below 12,000 feet AGL
Present Weather: no significant weather observed at this time
KFPR 162353Z 35006KT 10SM CLR 16/12 A3026 RMK AO2 SLP246 T01610122 10222 20161 51004

Conditions at: KFPR observed 16 January 2018  22:53 UTC
Temperature: 17.2°C (63°F)
Dewpoint: 11.7°C (53°F) [RH = 70%]
Pressure (altimeter): 30.26 inches Hg (1024.8 mb)
[Sea-level pressure: 1024.6 mb]
Winds: from the N (350 degrees) at 6 MPH (5 knots; 2.6 m/s)
Visibility: 10 or more miles (16+ km)
Ceiling: at least 12,000 feet AGL
Clouds: sky clear below 12,000 feet AGL
Present Weather: no significant weather observed at this time
KFPR 162253Z 35005KT 10SM CLR 17/12 A3026 RMK AO2 SLP246 T01720117

Conditions at: KFPR observed 16 January 2018  21:53 UTC
Temperature: 19.4°C (67°F)
Dewpoint: 11.1°C (52°F) [RH = 59%]
Pressure (altimeter): 30.26 inches Hg (1024.8 mb)
[Sea-level pressure: 1024.7 mb]
Winds: from the N (350 degrees) at 9 MPH (8 knots; 4.2 m/s)
Visibility: 10 or more miles (16+ km)
Ceiling: at least 12,000 feet AGL
Clouds: sky clear below 12,000 feet AGL
Present Weather: no significant weather observed at this time
KFPR 162153Z 35008KT 10SM CLR 19/11 A3026 RMK AO2 SLP247 T01940111

Conditions at: KFPR observed 16 January 2018  20:53 UTC
Temperature: 20.6°C (69°F)
Dewpoint: 12.2°C (54°F) [RH = 59%]
Pressure (altimeter): 30.25 inches Hg (1024.5 mb)
[Sea-level pressure: 1024.2 mb]
Winds: from the NNE (30 degrees) at 7 MPH (6 knots; 3.1 m/s)
Visibility: 10 or more miles (16+ km)
Ceiling: at least 12,000 feet AGL
Clouds: sky clear below 12,000 feet AGL
Present Weather: no significant weather observed at this time
KFPR 162053Z 03006KT 10SM CLR 21/12 A3025 RMK AO2 SLP242 T02060122 56016

Conditions at: KFPR observed 16 January 2018  19:53 UTC
Temperature: 21.7°C (71°F)
Dewpoint: 10.6°C (51°F) [RH = 49%]
Pressure (altimeter): 30.25 inches Hg (1024.5 mb)
[Sea-level pressure: 1024.3 mb]
Winds: from the N (10 degrees) at 9 MPH (8 knots; 4.2 m/s)
Visibility: 10 or more miles (16+ km)
Ceiling: at least 12,000 feet AGL
Clouds: sky clear below 12,000 feet AGL
Present Weather: no significant weather observed at this time
KFPR 161953Z 01008KT 10SM CLR 22/11 A3025 RMK AO2 SLP243 T02170106

Conditions at: KFPR observed 16 January 2018  18:53 UTC
Temperature: 21.7°C (71°F)
Dewpoint: 10.6°C (51°F) [RH = 49%]
Pressure (altimeter): 30.27 inches Hg (1025.1 mb)
[Sea-level pressure: 1025.1 mb]
Winds: from the N (10 degrees) at 9 MPH (8 knots; 4.2 m/s)
Visibility: 10 or more miles (16+ km)
Ceiling: at least 12,000 feet AGL
Clouds: sky clear below 12,000 feet AGL
Present Weather: no significant weather observed at this time
KFPR 161853Z 01008KT 10SM CLR 22/11 A3027 RMK AO2 SLP251 T02170106

Conditions at: KFPR observed 16 January 2018  17:53 UTC
Temperature: 21.7°C (71°F)
Dewpoint: 10.0°C (50°F) [RH = 47%]
Pressure (altimeter): 30.30 inches Hg (1026.2 mb)
[Sea-level pressure: 1025.8 mb]
Winds: from the N (10 degrees) at 9 MPH (8 knots; 4.2 m/s)
Visibility: 10 or more miles (16+ km)
Ceiling: at least 12,000 feet AGL
Clouds: sky clear below 12,000 feet AGL
Present Weather: no significant weather observed at this time
KFPR 161753Z 01008KT 10SM CLR 22/10 A3030 RMK AO2 SLP258 T02170100 10222 20089 58018

Conditions at: KFPR observed 16 January 2018  16:53 UTC
Temperature: 21.7°C (71°F)
Dewpoint: 10.6°C (51°F) [RH = 49%]
Pressure (altimeter): 30.33 inches Hg (1027.2 mb)
[Sea-level pressure: 1027.0 mb]
Winds: from the NE (50 degrees) at 10 MPH (9 knots; 4.7 m/s)
Visibility: 10 or more miles (16+ km)
Ceiling: at least 12,000 feet AGL
Clouds: sky clear below 12,000 feet AGL
Present Weather: no significant weather observed at this time
KFPR 161653Z 05009KT 10SM CLR 22/11 A3033 RMK AO2 SLP270 T02170106

Conditions at: KFPR observed 16 January 2018  15:53 UTC
Temperature: 21.7°C (71°F)
Dewpoint: 11.1°C (52°F) [RH = 51%]
Pressure (altimeter): 30.35 inches Hg (1027.9 mb)
[Sea-level pressure: 1027.6 mb]
Winds: from the ENE (60 degrees) at 8 MPH (7 knots; 3.6 m/s)
Visibility: 10 or more miles (16+ km)
Ceiling: at least 12,000 feet AGL
Clouds: sky clear below 12,000 feet AGL
Present Weather: no significant weather observed at this time
KFPR 161553Z 06007KT 10SM CLR 22/11 A3035 RMK AO2 SLP276 T02170111

Conditions at: KFPR observed 16 January 2018  14:53 UTC
Temperature: 20.6°C (69°F)
Dewpoint: 11.7°C (53°F) [RH = 57%]
Pressure (altimeter): 30.35 inches Hg (1027.9 mb)
[Sea-level pressure: 1027.6 mb]
Winds: from the ENE (60 degrees) at 9 MPH (8 knots; 4.2 m/s)
Visibility: 10 or more miles (16+ km)
Ceiling: at least 12,000 feet AGL
Clouds: sky clear below 12,000 feet AGL
Present Weather: no significant weather observed at this time
KFPR 161453Z 06008KT 10SM CLR 21/12 A3035 RMK AO2 SLP276 T02060117 52015

Conditions at: KFPR observed 16 January 2018  13:53 UTC
Temperature: 17.8°C (64°F)
Dewpoint: 12.8°C (55°F) [RH = 73%]
Pressure (altimeter): 30.34 inches Hg (1027.5 mb)
[Sea-level pressure: 1027.1 mb]
Winds: calm
Visibility: 10 or more miles (16+ km)
Ceiling: at least 12,000 feet AGL
Clouds: sky clear below 12,000 feet AGL
Present Weather: no significant weather observed at this time
KFPR 161353Z 00000KT 10SM CLR 18/13 A3034 RMK AO2 SLP271 T01780128

Conditions at: KFPR observed 16 January 2018  12:53 UTC
Temperature: 10.0°C (50°F)
Dewpoint: 10.0°C (50°F) [RH = 100%]
Pressure (altimeter): 30.32 inches Hg (1026.8 mb)
[Sea-level pressure: 1026.7 mb]
Winds: calm
Visibility: 10 or more miles (16+ km)
Ceiling: at least 12,000 feet AGL
Clouds: sky clear below 12,000 feet AGL
Present Weather: no significant weather observed at this time
KFPR 161253Z 00000KT 10SM CLR 10/10 A3032 RMK AO2 SLP267 T01000100

Conditions at: KFPR observed 16 January 2018  11:53 UTC
Temperature: 9.4°C (49°F)
Dewpoint: 9.4°C (49°F) [RH = 100%]
Pressure (altimeter): 30.31 inches Hg (1026.5 mb)
[Sea-level pressure: 1026.2 mb]
Winds: from the W (260 degrees) at 3 MPH (3 knots; 1.6 m/s)
Visibility: 10 or more miles (16+ km)
Ceiling: at least 12,000 feet AGL
Clouds: sky clear below 12,000 feet AGL
Present Weather: no significant weather observed at this time
KFPR 161153Z 26003KT 10SM CLR 09/09 A3031 RMK AO2 SLP262 T00940094 10172 20094 53009

Conditions at: KFPR observed 16 January 2018  10:53 UTC
Temperature: 16.1°C (61°F)
Dewpoint: 11.1°C (52°F) [RH = 72%]
Pressure (altimeter): 30.29 inches Hg (1025.8 mb)
[Sea-level pressure: 1025.7 mb]
Winds: from the NE (40 degrees) at 5 MPH (4 knots; 2.1 m/s)
Visibility: 10 or more miles (16+ km)
Ceiling: at least 12,000 feet AGL
Clouds: sky clear below 12,000 feet AGL
Present Weather: automated observation with no human augmentation;
there may or may not be significant weather present at this time
KFPR 161053Z AUTO 04004KT 10SM CLR 16/11 A3029 RMK AO2 SLP257 T01610111

Conditions at: KFPR observed 16 January 2018  09:53 UTC
Temperature: 16.7°C (62°F)
Dewpoint: 11.7°C (53°F) [RH = 72%]
Pressure (altimeter): 30.29 inches Hg (1025.8 mb)
[Sea-level pressure: 1025.5 mb]
Winds: from the NE (50 degrees) at 5 MPH (4 knots; 2.1 m/s)
Visibility: 10 or more miles (16+ km)
Ceiling: 4000 feet AGL
Clouds: broken clouds at 4000 feet AGL
Present Weather: automated observation with no human augmentation;
there may or may not be significant weather present at this time
KFPR 160953Z AUTO 05004KT 10SM BKN040 17/12 A3029 RMK AO2 SLP255 T01670117

Conditions at: KFPR observed 16 January 2018  08:53 UTC
Temperature: 16.7°C (62°F)
Dewpoint: 11.7°C (53°F) [RH = 72%]
Pressure (altimeter): 30.28 inches Hg (1025.5 mb)
[Sea-level pressure: 1025.2 mb]
Winds: from the NE (50 degrees) at 3 MPH (3 knots; 1.6 m/s)
Visibility: 10 or more miles (16+ km)
Ceiling: at least 12,000 feet AGL
Clouds: sky clear below 12,000 feet AGL
Present Weather: automated observation with no human augmentation;
there may or may not be significant weather present at this time
KFPR 160853Z AUTO 05003KT 10SM CLR 17/12 A3028 RMK AO2 SLP252 T01670117 55005

Conditions at: KFPR observed 16 January 2018  07:53 UTC
Temperature: 16.7°C (62°F)
Dewpoint: 11.1°C (52°F) [RH = 70%]
Pressure (altimeter): 30.27 inches Hg (1025.1 mb)
[Sea-level pressure: 1025.1 mb]
Winds: from the ENE (60 degrees) at 5 MPH (4 knots; 2.1 m/s)
Visibility: 10 or more miles (16+ km)
Ceiling: at least 12,000 feet AGL
Clouds: scattered clouds at 3800 feet AGL
Present Weather: no significant weather observed at this time
KFPR 160753Z 06004KT 10SM SCT038 17/11 A3027 RMK AO2 SLP251 T01670111

Conditions at: KFPR observed 16 January 2018  06:53 UTC
Temperature: 17.2°C (63°F)
Dewpoint: 11.1°C (52°F) [RH = 67%]
Pressure (altimeter): 30.28 inches Hg (1025.5 mb)
[Sea-level pressure: 1025.4 mb]
Winds: from the ENE (60 degrees) at 6 MPH (5 knots; 2.6 m/s)
Visibility: 10 or more miles (16+ km)
Ceiling: at least 12,000 feet AGL
Clouds: sky clear below 12,000 feet AGL
Present Weather: no significant weather observed at this time
KFPR 160653Z 06005KT 10SM CLR 17/11 A3028 RMK AO2 SLP254 T01720111

Conditions at: KFPR observed 16 January 2018  05:53 UTC
Temperature: 17.2°C (63°F)
Dewpoint: 11.7°C (53°F) [RH = 70%]
Pressure (altimeter): 30.29 inches Hg (1025.8 mb)
[Sea-level pressure: 1025.7 mb]
Winds: from the NE (50 degrees) at 9 MPH (8 knots; 4.2 m/s)
Visibility: 10 or more miles (16+ km)
Ceiling: at least 12,000 feet AGL
Clouds: sky clear below 12,000 feet AGL
Present Weather: no significant weather observed at this time
KFPR 160553Z 05008KT 10SM CLR 17/12 A3029 RMK AO2 SLP257 T01720117 10178 20144 58006

Conditions at: KFPR observed 16 January 2018  04:53 UTC
Temperature: 17.2°C (63°F)
Dewpoint: 11.1°C (52°F) [RH = 67%]
Pressure (altimeter): 30.29 inches Hg (1025.8 mb)
[Sea-level pressure: 1025.8 mb]
Winds: from the NE (50 degrees) at 5 MPH (4 knots; 2.1 m/s)
Visibility: 10 or more miles (16+ km)
Ceiling: at least 12,000 feet AGL
Clouds: few clouds at 4200 feet AGL
few clouds at 5000 feet AGL
Present Weather: no significant weather observed at this time
KFPR 160453Z 05004KT 10SM FEW042 FEW050 17/11 A3029 RMK AO2 SLP258 T01720111 402000089

Conditions at: KFPR observed 16 January 2018  03:53 UTC
Temperature: 15.0°C (59°F)
Dewpoint: 12.8°C (55°F) [RH = 87%]
Pressure (altimeter): 30.31 inches Hg (1026.5 mb)
[Sea-level pressure: 1026.3 mb]
Winds: from the N (360 degrees) at 3 MPH (3 knots; 1.6 m/s)
Visibility: 10 or more miles (16+ km)
Ceiling: 4500 feet AGL
Clouds: broken clouds at 4500 feet AGL
Present Weather: no significant weather observed at this time
KFPR 160353Z 36003KT 10SM BKN045 15/13 A3031 RMK AO2 SLP263 T01500128

Conditions at: KFPR observed 16 January 2018  02:53 UTC
Temperature: 14.4°C (58°F)
Dewpoint: 12.2°C (54°F) [RH = 87%]
Pressure (altimeter): 30.31 inches Hg (1026.5 mb)
[Sea-level pressure: 1026.3 mb]
Winds: from the N (350 degrees) at 7 MPH (6 knots; 3.1 m/s)
Visibility: 10 or more miles (16+ km)
Ceiling: at least 12,000 feet AGL
Clouds: sky clear below 12,000 feet AGL
Present Weather: no significant weather observed at this time
KFPR 160253Z 35006KT 10SM CLR 14/12 A3031 RMK AO2 SLP263 T01440122 51009

Conditions at: KFPR observed 16 January 2018  01:53 UTC
Temperature: 14.4°C (58°F)
Dewpoint: 11.1°C (52°F) [RH = 81%]
Pressure (altimeter): 30.30 inches Hg (1026.2 mb)
[Sea-level pressure: 1026.0 mb]
Winds: from the NNW (340 degrees) at 8 MPH (7 knots; 3.6 m/s)
Visibility: 10 or more miles (16+ km)
Ceiling: 4800 feet AGL
Clouds: broken clouds at 4800 feet AGL
Present Weather: no significant weather observed at this time
KFPR 160153Z 34007KT 10SM BKN048 14/11 A3030 RMK AO2 SLP260 T01440111

Conditions at: KFPR observed 16 January 2018  00:53 UTC
Temperature: 15.0°C (59°F)
Dewpoint: 11.7°C (53°F) [RH = 81%]
Pressure (altimeter): 30.29 inches Hg (1025.8 mb)
[Sea-level pressure: 1025.7 mb]
Winds: from the NNW (340 degrees) at 10 MPH (9 knots; 4.7 m/s)
gusting to 22 MPH (19 knots; 9.9 m/s)
Visibility: 10 or more miles (16+ km)
Ceiling: 4800 feet AGL
Clouds: scattered clouds at 4000 feet AGL
broken clouds at 4800 feet AGL
overcast cloud deck at 6000 feet AGL
Present Weather: no significant weather observed at this time
KFPR 160053Z 34009G19KT 10SM SCT040 BKN048 OVC060 15/12 A3029 RMK AO2 SLP257 T01500117

Conditions at: KFPR observed 15 January 2018  23:53 UTC
Temperature: 15.6°C (60°F)
Dewpoint: 11.7°C (53°F) [RH = 78%]
Pressure (altimeter): 30.28 inches Hg (1025.5 mb)
[Sea-level pressure: 1025.3 mb]
Winds: from the NNW (340 degrees) at 13 MPH (11 knots; 5.7 m/s)
gusting to 22 MPH (19 knots; 9.9 m/s)
Visibility: 10 or more miles (16+ km)
Ceiling: 5500 feet AGL
Clouds: scattered clouds at 4100 feet AGL
overcast cloud deck at 5500 feet AGL
Present Weather: no significant weather observed at this time
KFPR 152353Z 34011G19KT 10SM SCT041 OVC055 16/12 A3028 RMK AO2 SLP253 60000 T01560117 10189 20156 53004

Conditions at: KFPR observed 15 January 2018  22:53 UTC
Temperature: 15.6°C (60°F)
Dewpoint: 12.2°C (54°F) [RH = 80%]
Pressure (altimeter): 30.27 inches Hg (1025.1 mb)
[Sea-level pressure: 1025.0 mb]
Winds: from the N (350 degrees) at 13 MPH (11 knots; 5.7 m/s)
gusting to 21 MPH (18 knots; 9.4 m/s)
Visibility: 10 or more miles (16+ km)
Ceiling: 3600 feet AGL
Clouds: broken clouds at 3600 feet AGL
overcast cloud deck at 4600 feet AGL
Present Weather: no significant weather observed at this time
KFPR 152253Z 35011G18KT 10SM BKN036 OVC046 16/12 A3027 RMK AO2 SLP250 T01560122